createdAt,value
2022-11-27T00:02:08.283Z,59.76
2022-11-27T00:06:09.982Z,59.54
2022-11-27T00:10:12.364Z,59.48
2022-11-27T00:14:18.917Z,59.47
2022-11-27T00:18:19.596Z,59.81
2022-11-27T00:22:20.036Z,59.60
2022-11-27T00:26:20.974Z,59.79
2022-11-27T00:30:23.813Z,59.86
2022-11-27T00:34:23.902Z,59.72
2022-11-27T00:38:24.440Z,59.43
2022-11-27T00:42:24.573Z,59.65
2022-11-27T00:46:30.145Z,59.68
2022-11-27T00:50:32.063Z,59.54
2022-11-27T00:54:32.169Z,59.73
2022-11-27T00:58:32.659Z,59.86
2022-11-27T01:02:35.638Z,59.25
2022-11-27T01:06:36.242Z,59.13
2022-11-27T01:10:36.751Z,59.25
2022-11-27T01:14:37.669Z,59.23
2022-11-27T01:18:44.195Z,58.86
2022-11-27T01:22:44.314Z,58.96
2022-11-27T01:26:45.215Z,59.27
2022-11-27T01:30:45.782Z,59.21
2022-11-27T01:34:48.577Z,59.80
2022-11-27T01:38:48.656Z,59.61
2022-11-27T01:42:48.771Z,59.40
2022-11-27T01:46:53.145Z,59.93
2022-11-27T01:50:56.527Z,59.92
2022-11-27T01:55:02.631Z,59.72
2022-11-27T01:59:03.706Z,59.89
2022-11-27T02:03:04.116Z,59.82
2022-11-27T02:07:06.938Z,59.96
2022-11-27T02:11:15.761Z,59.48
2022-11-27T02:15:25.275Z,59.40
2022-11-27T02:19:43.637Z,59.99
2022-11-27T02:24:30.206Z,59.99
2022-11-27T02:28:47.449Z,60.60
2022-11-27T02:32:59.936Z,60.74
2022-11-27T02:37:09.767Z,60.59
2022-11-27T02:41:17.374Z,61.27
2022-11-27T02:45:24.835Z,60.97
2022-11-27T02:49:28.836Z,60.45
2022-11-27T02:53:38.017Z,60.18
2022-11-27T02:57:42.347Z,59.93
2022-11-27T03:01:48.711Z,59.29
2022-11-27T03:05:58.160Z,59.39
2022-11-27T03:10:05.963Z,59.66
2022-11-27T03:14:11.091Z,59.63
2022-11-27T03:18:25.466Z,59.39
2022-11-27T03:22:29.154Z,59.62
2022-11-27T03:26:29.655Z,59.38
2022-11-27T03:30:30.097Z,59.40
2022-11-27T03:34:31.149Z,58.80
2022-11-27T03:38:33.875Z,59.11
2022-11-27T03:42:46.632Z,59.25
2022-11-27T03:47:01.420Z,59.22
2022-11-27T03:51:13.019Z,59.38
2022-11-27T03:55:26.662Z,59.66
2022-11-27T03:59:33.390Z,59.47
2022-11-27T04:03:34.065Z,59.35
2022-11-27T04:07:34.259Z,59.69
2022-11-27T04:11:37.094Z,59.97
2022-11-27T04:15:37.288Z,59.87
2022-11-27T04:19:37.698Z,59.37
2022-11-27T04:23:38.566Z,59.26
2022-11-27T04:27:41.379Z,60.11
2022-11-27T04:31:41.489Z,60.00
2022-11-27T04:35:41.635Z,60.02
2022-11-27T04:39:41.793Z,60.44
2022-11-27T04:43:44.838Z,60.56
2022-11-27T04:47:45.114Z,60.31
2022-11-27T04:51:45.939Z,60.65
2022-11-27T04:55:46.174Z,62.13
2022-11-27T04:59:48.860Z,63.27
2022-11-27T05:03:51.009Z,62.85
2022-11-27T05:07:51.155Z,62.17
2022-11-27T05:11:51.457Z,61.51
2022-11-27T05:15:54.113Z,61.91
2022-11-27T05:19:54.532Z,61.46
2022-11-27T05:23:54.576Z,61.54
2022-11-27T05:27:55.759Z,61.18
2022-11-27T05:31:58.443Z,61.24
2022-11-27T05:35:58.623Z,62.28
2022-11-27T05:39:59.025Z,62.18
2022-11-27T05:43:59.180Z,62.28
2022-11-27T05:48:01.952Z,62.52
2022-11-27T05:52:02.115Z,63.10
2022-11-27T05:56:05.691Z,63.19
2022-11-27T06:00:07.314Z,63.08
2022-11-27T06:04:10.010Z,63.10
2022-11-27T06:08:10.508Z,63.77
2022-11-27T06:12:11.352Z,63.64
2022-11-27T06:16:16.986Z,62.96
2022-11-27T06:20:20.453Z,62.77
2022-11-27T06:24:20.587Z,62.66
2022-11-27T06:28:20.727Z,62.26
2022-11-27T06:32:20.817Z,62.29
2022-11-27T06:36:28.157Z,61.98
2022-11-27T06:40:28.426Z,62.20
2022-11-27T06:44:28.677Z,61.64
2022-11-27T06:48:29.293Z,61.13
2022-11-27T06:52:34.678Z,61.00
2022-11-27T06:56:38.915Z,60.69
2022-11-27T07:00:39.295Z,61.31
2022-11-27T07:04:40.548Z,61.83
2022-11-27T07:08:44.299Z,62.15
2022-11-27T07:12:44.372Z,62.52
2022-11-27T07:16:44.610Z,62.06
2022-11-27T07:20:44.744Z,62.09
2022-11-27T07:24:47.473Z,61.90
2022-11-27T07:28:48.672Z,61.90
2022-11-27T07:32:48.805Z,61.64
2022-11-27T07:36:49.140Z,61.99
2022-11-27T07:40:53.903Z,61.95
2022-11-27T07:44:54.246Z,61.79
2022-11-27T07:48:54.748Z,61.62
2022-11-27T07:52:54.806Z,61.84
2022-11-27T07:56:57.440Z,61.76
2022-11-27T08:00:57.623Z,61.37
2022-11-27T08:04:57.894Z,61.64
2022-11-27T08:08:58.775Z,61.75
2022-11-27T08:13:01.739Z,61.30
2022-11-27T08:17:02.069Z,61.36
2022-11-27T08:21:03.688Z,60.86
2022-11-27T08:25:03.958Z,61.16
2022-11-27T08:29:06.731Z,62.18
2022-11-27T08:33:07.024Z,61.99
2022-11-27T08:37:07.369Z,61.87
2022-11-27T08:41:10.529Z,61.77
2022-11-27T08:45:13.910Z,61.14
2022-11-27T08:49:27.769Z,60.50
2022-11-27T08:53:28.052Z,60.87
2022-11-27T08:57:28.660Z,60.09
2022-11-27T09:01:32.179Z,60.94
2022-11-27T09:05:35.523Z,61.30
2022-11-27T09:09:35.975Z,61.21
2022-11-27T09:13:37.315Z,61.47
2022-11-27T09:17:37.433Z,60.87
2022-11-27T09:21:40.496Z,60.09
2022-11-27T09:25:42.087Z,59.87
2022-11-27T09:29:42.271Z,59.04
2022-11-27T09:33:44.358Z,59.39
2022-11-27T09:37:47.047Z,59.24
2022-11-27T09:41:52.231Z,59.31
2022-11-27T09:45:58.092Z,59.15
2022-11-27T09:50:05.917Z,58.54
2022-11-27T09:54:18.394Z,58.38
2022-11-27T09:58:24.659Z,57.97
2022-11-27T10:02:33.533Z,58.07
2022-11-27T10:06:41.507Z,58.27
2022-11-27T10:11:03.148Z,58.29
2022-11-27T10:15:13.424Z,59.31
2022-11-27T10:19:33.663Z,59.23
2022-11-27T10:23:48.773Z,59.42
2022-11-27T10:28:07.612Z,59.68
2022-11-27T10:32:46.966Z,59.90
2022-11-27T10:36:44.864Z,60.28
2022-11-27T10:40:54.920Z,59.70
2022-11-27T10:45:05.709Z,59.37
2022-11-27T10:49:05.996Z,59.24
2022-11-27T10:53:12.308Z,58.34
2022-11-27T10:57:43.235Z,58.72
2022-11-27T11:06:28.600Z,59.24
2022-11-27T11:11:16.436Z,58.47
2022-11-27T11:15:25.051Z,58.86
2022-11-27T11:19:41.444Z,59.65
2022-11-27T11:23:56.259Z,59.93
2022-11-27T11:27:56.888Z,60.74
2022-11-27T11:32:02.217Z,60.71
2022-11-27T11:36:14.252Z,60.50
2022-11-27T11:40:27.515Z,59.72
2022-11-27T11:44:35.527Z,60.29
2022-11-27T11:48:43.449Z,60.00
2022-11-27T11:53:02.154Z,60.13
2022-11-27T11:57:13.541Z,59.36
2022-11-27T12:01:54.318Z,59.09
2022-11-27T12:06:18.384Z,59.31
2022-11-27T12:10:30.612Z,59.92
2022-11-27T12:14:46.781Z,60.04
2022-11-27T12:19:19.148Z,59.98
2022-11-27T12:23:56.380Z,60.42
2022-11-27T12:28:25.051Z,60.52
2022-11-27T12:32:53.413Z,60.48
2022-11-27T12:37:31.159Z,61.53
2022-11-27T12:42:00.663Z,61.15
2022-11-27T12:46:13.023Z,61.24
2022-11-27T12:50:23.963Z,60.83
2022-11-27T12:54:30.611Z,60.48
2022-11-27T12:58:37.015Z,59.77
2022-11-27T13:02:49.308Z,59.78
2022-11-27T13:07:01.429Z,60.59
2022-11-27T13:11:09.489Z,59.48
2022-11-27T13:15:24.099Z,60.48
2022-11-27T13:19:35.421Z,62.41
2022-11-27T13:23:36.831Z,61.96
2022-11-27T13:27:40.497Z,61.07
2022-11-27T13:31:42.152Z,60.93
2022-11-27T13:35:46.161Z,60.95
2022-11-27T13:39:47.373Z,60.78
2022-11-27T13:43:50.580Z,60.11
2022-11-27T13:47:53.170Z,61.01
2022-11-27T13:52:16.439Z,61.24
2022-11-27T13:56:19.239Z,61.25
2022-11-27T14:00:20.847Z,60.66
2022-11-27T14:04:21.028Z,61.01
2022-11-27T14:08:31.918Z,61.39
2022-11-27T14:12:36.195Z,60.83
2022-11-27T14:16:39.643Z,61.14
2022-11-27T14:20:50.811Z,61.04
2022-11-27T14:24:57.892Z,62.00
2022-11-27T14:29:00.537Z,62.67
2022-11-27T14:33:00.870Z,61.11
2022-11-27T14:37:02.545Z,62.20
2022-11-27T14:41:20.033Z,62.55
2022-11-27T14:45:23.988Z,61.79
2022-11-27T14:49:30.977Z,61.92
2022-11-27T14:53:32.129Z,61.90
2022-11-27T14:57:35.142Z,60.81
2022-11-27T15:01:37.795Z,61.07
2022-11-27T15:05:41.200Z,60.64
2022-11-27T15:09:47.393Z,61.03
2022-11-27T15:13:56.971Z,61.27
2022-11-27T15:18:01.780Z,61.59
2022-11-27T15:22:02.520Z,61.92
2022-11-27T15:26:19.927Z,61.62
2022-11-27T15:30:26.152Z,60.69
2022-11-27T15:34:30.082Z,61.15
2022-11-27T15:38:30.278Z,60.97
2022-11-27T15:42:31.234Z,60.90
2022-11-27T15:46:38.255Z,61.80
2022-11-27T15:50:38.392Z,61.20
2022-11-27T15:54:38.598Z,61.11
2022-11-27T15:58:38.867Z,61.17
2022-11-27T16:02:42.441Z,60.73
2022-11-27T16:06:42.645Z,60.33
2022-11-27T16:10:43.758Z,60.05
2022-11-27T16:14:43.933Z,60.69
2022-11-27T16:18:46.949Z,61.54
2022-11-27T16:22:47.083Z,60.63
2022-11-27T16:26:50.099Z,61.53
2022-11-27T16:30:50.259Z,61.71
2022-11-27T16:34:53.276Z,61.81
2022-11-27T16:38:55.991Z,62.12
2022-11-27T16:42:57.812Z,61.86
2022-11-27T16:46:58.203Z,61.65
2022-11-27T16:51:06.170Z,61.57
2022-11-27T16:55:06.652Z,61.92
2022-11-27T16:59:11.584Z,61.37
2022-11-27T17:03:11.866Z,60.95
2022-11-27T17:07:14.583Z,60.57
2022-11-27T17:11:17.335Z,61.60
2022-11-27T17:15:17.519Z,60.71
2022-11-27T17:19:18.802Z,61.29
2022-11-27T17:23:21.507Z,61.08
2022-11-27T17:27:21.746Z,61.24
2022-11-27T17:31:24.752Z,60.53
2022-11-27T17:35:25.287Z,60.59
2022-11-27T17:39:28.964Z,61.09
2022-11-27T17:43:30.506Z,60.84
2022-11-27T17:47:30.616Z,60.95
2022-11-27T17:51:34.185Z,60.72
2022-11-27T17:55:37.071Z,61.57
2022-11-27T17:59:37.429Z,60.92
2022-11-27T18:03:37.962Z,60.53
2022-11-27T18:07:38.174Z,60.11
2022-11-27T18:11:41.973Z,60.10
2022-11-27T18:15:44.146Z,60.23
2022-11-27T18:19:44.325Z,59.88
2022-11-27T18:24:20.565Z,59.10
2022-11-27T18:28:10.149Z,58.32
2022-11-27T18:32:10.985Z,58.48
2022-11-27T18:36:13.306Z,59.83
2022-11-27T18:40:14.756Z,59.53
2022-11-27T18:44:18.478Z,59.14
2022-11-27T18:48:18.621Z,59.13
2022-11-27T18:52:19.007Z,59.17
2022-11-27T18:56:22.660Z,59.21
2022-11-27T19:00:25.749Z,59.12
2022-11-27T19:04:26.215Z,58.69
2022-11-27T19:08:27.012Z,58.75
2022-11-27T19:12:27.586Z,58.87
2022-11-27T19:16:34.134Z,58.79
2022-11-27T19:20:34.453Z,58.78
2022-11-27T19:24:34.677Z,58.84
2022-11-27T19:28:35.036Z,59.13
2022-11-27T19:32:38.125Z,58.58
2022-11-27T19:36:39.100Z,58.29
2022-11-27T19:40:41.580Z,59.60
2022-11-27T19:44:42.495Z,58.91
2022-11-27T19:48:45.839Z,59.32
2022-11-27T19:52:46.323Z,58.58
2022-11-27T19:56:46.747Z,58.43
2022-11-27T20:00:47.180Z,59.04
2022-11-27T20:04:50.582Z,58.72
2022-11-27T20:08:53.255Z,58.65
2022-11-27T20:12:54.488Z,58.07
2022-11-27T20:16:54.859Z,57.91
2022-11-27T20:21:08.512Z,57.91
2022-11-27T20:25:19.610Z,57.79
2022-11-27T20:29:20.912Z,57.44
2022-11-27T20:33:21.071Z,57.50
2022-11-27T20:37:23.775Z,58.14
2022-11-27T20:41:26.621Z,58.45
2022-11-27T20:45:29.079Z,58.79
2022-11-27T20:49:29.272Z,58.93
2022-11-27T20:53:31.963Z,58.59
2022-11-27T20:57:32.067Z,58.89
2022-11-27T21:01:35.520Z,58.28
2022-11-27T21:05:36.146Z,58.31
2022-11-27T21:09:40.071Z,59.30
2022-11-27T21:13:41.696Z,58.68
2022-11-27T21:17:42.161Z,58.63
2022-11-27T21:21:42.584Z,58.39
2022-11-27T21:25:45.480Z,58.74
2022-11-27T21:29:46.367Z,59.35
2022-11-27T21:33:51.968Z,59.38
2022-11-27T21:37:52.103Z,59.54
2022-11-27T21:41:57.788Z,59.15
2022-11-27T21:45:58.971Z,59.49
2022-11-27T21:49:59.369Z,59.94
2022-11-27T21:54:01.420Z,59.08
2022-11-27T21:58:04.207Z,59.63
2022-11-27T22:02:04.637Z,59.33
2022-11-27T22:06:12.612Z,59.59
2022-11-27T22:10:14.638Z,59.09
2022-11-27T22:14:19.161Z,59.10
2022-11-27T22:18:19.346Z,58.72
2022-11-27T22:22:19.692Z,59.55
2022-11-27T22:26:23.047Z,59.38
2022-11-27T22:30:29.497Z,60.06
2022-11-27T22:34:29.608Z,59.03
2022-11-27T22:38:29.702Z,59.45
2022-11-27T22:42:30.260Z,59.52
2022-11-27T22:46:36.959Z,59.09
2022-11-27T22:50:37.113Z,59.21
2022-11-27T22:54:37.281Z,59.11
2022-11-27T22:58:41.630Z,59.26
2022-11-27T23:02:44.802Z,59.58
2022-11-27T23:06:47.481Z,59.32
2022-11-27T23:10:48.709Z,59.67
2022-11-27T23:14:48.778Z,59.22
2022-11-27T23:18:52.973Z,58.87
2022-11-27T23:22:53.184Z,58.78
2022-11-27T23:26:53.408Z,58.76
2022-11-27T23:31:15.344Z,57.94
2022-11-27T23:35:16.287Z,58.25
2022-11-27T23:39:17.116Z,58.64
2022-11-27T23:43:17.216Z,58.47
2022-11-27T23:47:17.242Z,59.13
2022-11-27T23:51:23.590Z,59.32
2022-11-27T23:55:23.726Z,59.15
2022-11-27T23:59:23.798Z,58.81
